Time;durP1;ratioP1;P1;durP2;ratioP2;P2;SDS_P1;SDS_P2;PMS_P1;PMS_P2;Temp;Humidity;BMP_temperature;BMP_pressure;BME280_temperature;BME280_humidity;BME280_pressure;Samples;Min_cycle;Max_cycle;Signal;HPM_P1;HPM_P2
2023/10/29 00:02:20;;;;;;;10.32;3.55;;;;;;;14.61;81.47;99936.13;4952090;28;96712;-78
2023/10/29 00:04:47;;;;;;;11.40;3.70;;;;;;;14.39;82.89;99932.28;4952431;28;98141;-79
2023/10/29 00:07:13;;;;;;;9.15;3.28;;;;;;;14.58;81.31;99935.47;4952421;28;99007;-78
2023/10/29 00:09:41;;;;;;;9.15;3.22;;;;;;;14.51;81.87;99929.69;4951155;28;99403;-78
2023/10/29 00:12:08;;;;;;;9.45;3.60;;;;;;;14.56;81.94;99924.94;4952231;28;96810;-78
2023/10/29 00:14:34;;;;;;;9.95;3.40;;;;;;;14.68;81.20;99924.16;4960121;28;96891;-78
2023/10/29 00:17:00;;;;;;;6.05;3.10;;;;;;;14.59;80.85;99924.72;4951728;28;97903;-78
2023/10/29 00:19:27;;;;;;;6.15;2.78;;;;;;;14.54;80.88;99925.97;4952008;28;100701;-78
2023/10/29 00:21:53;;;;;;;8.38;2.67;;;;;;;14.61;81.10;99922.84;4952401;28;96891;-78
2023/10/29 00:24:22;;;;;;;7.88;2.50;;;;;;;14.55;81.09;99927.69;4948102;28;96851;-79
2023/10/29 00:26:50;;;;;;;9.25;2.53;;;;;;;14.55;81.27;99917.06;4944728;28;98917;-77
2023/10/29 00:29:16;;;;;;;10.93;2.90;;;;;;;14.46;81.12;99913.19;4950493;28;98945;-78
2023/10/29 00:31:43;;;;;;;12.70;2.45;;;;;;;14.47;81.03;99914.91;4951761;28;96892;-78
2023/10/29 00:34:09;;;;;;;7.00;2.75;;;;;;;14.26;81.67;99905.59;4954855;28;96896;-79
2023/10/29 00:36:35;;;;;;;4.63;2.03;;;;;;;14.45;80.82;99903.50;4951604;28;98959;-79
2023/10/29 00:39:02;;;;;;;6.22;1.80;;;;;;;14.45;80.36;99898.19;4951718;28;98114;-79
2023/10/29 00:41:29;;;;;;;5.93;2.30;;;;;;;14.35;80.98;99897.91;4950523;28;97215;-79
2023/10/29 00:43:57;;;;;;;12.00;2.17;;;;;;;14.29;81.61;99895.66;4949142;28;96957;-79
2023/10/29 00:46:24;;;;;;;8.18;2.50;;;;;;;14.41;80.95;99903.81;4950221;28;102190;-79
2023/10/29 00:48:51;;;;;;;7.90;1.98;;;;;;;14.60;80.07;99897.19;4949708;28;98939;-79
2023/10/29 00:51:18;;;;;;;8.00;2.25;;;;;;;14.28;81.48;99909.03;4950830;28;98713;-79
2023/10/29 00:53:44;;;;;;;5.40;1.92;;;;;;;14.57;80.16;99905.34;4949952;28;97101;-79
2023/10/29 00:56:12;;;;;;;5.80;2.20;;;;;;;14.46;79.71;99899.88;4950364;28;99347;-78
2023/10/29 00:58:40;;;;;;;6.50;1.80;;;;;;;14.39;80.56;99892.41;4950743;28;98786;-77
2023/10/29 01:01:07;;;;;;;13.15;2.13;;;;;;;14.43;80.01;99886.81;4951147;28;96664;-78
2023/10/29 01:03:34;;;;;;;4.57;1.90;;;;;;;14.32;79.99;99884.81;4949434;28;97232;-77
2023/10/29 01:06:00;;;;;;;8.32;2.20;;;;;;;14.28;80.47;99888.63;4949360;28;99407;-78
2023/10/29 01:08:27;;;;;;;5.28;2.10;;;;;;;14.00;81.63;99898.44;4950243;28;99142;-77
2023/10/29 01:10:55;;;;;;;6.20;1.98;;;;;;;14.23;81.20;99900.50;4948735;28;96799;-78
2023/10/29 01:13:21;;;;;;;5.35;2.50;;;;;;;14.42;80.32;99897.53;4950591;28;96842;-78
2023/10/29 01:15:48;;;;;;;8.35;2.95;;;;;;;14.35;79.97;99884.63;4949175;28;98954;-78
2023/10/29 01:18:15;;;;;;;11.10;2.22;;;;;;;14.54;79.50;99881.66;4946140;28;103693;-78
2023/10/29 01:20:43;;;;;;;4.88;1.95;;;;;;;14.48;79.83;99883.84;4946954;28;97544;-78
2023/10/29 01:23:09;;;;;;;6.55;2.15;;;;;;;14.30;80.40;99883.22;4945495;28;98842;-78
2023/10/29 01:25:38;;;;;;;8.50;2.17;;;;;;;14.50;79.96;99881.97;4948539;28;99039;-78
2023/10/29 01:28:05;;;;;;;4.40;2.30;;;;;;;14.52;79.48;99885.34;4951067;28;99112;-78
2023/10/29 01:30:31;;;;;;;5.93;2.03;;;;;;;14.25;80.32;99872.00;4949467;28;96809;-78
2023/10/29 01:32:59;;;;;;;6.47;2.42;;;;;;;14.29;80.30;99876.19;4948771;28;99968;-77
2023/10/29 01:35:27;;;;;;;5.63;1.92;;;;;;;14.30;80.33;99865.47;4950436;28;98934;-78
2023/10/29 01:37:53;;;;;;;6.80;2.10;;;;;;;14.11;81.31;99853.47;4953816;28;99412;-77
2023/10/29 01:40:20;;;;;;;4.35;2.10;;;;;;;14.15;80.55;99849.66;4950816;28;98830;-76
2023/10/29 01:42:48;;;;;;;4.10;2.20;;;;;;;14.11;82.01;99851.63;4952639;28;96697;-79
2023/10/29 01:45:16;;;;;;;9.95;2.50;;;;;;;14.35;80.58;99850.06;4950499;28;99593;-78
2023/10/29 01:47:43;;;;;;;6.35;2.13;;;;;;;14.18;80.77;99852.09;4950189;28;98881;-78
2023/10/29 01:50:10;;;;;;;5.22;2.33;;;;;;;14.37;80.07;99855.28;4950840;28;99529;-78
2023/10/29 01:52:38;;;;;;;5.70;2.30;;;;;;;14.08;81.29;99851.00;4949657;28;97811;-78
2023/10/29 01:55:05;;;;;;;4.63;2.10;;;;;;;14.36;80.91;99842.94;4950056;28;100462;-79
2023/10/29 01:57:34;;;;;;;7.38;2.40;;;;;;;14.27;80.49;99841.75;4949523;28;99112;-77
2023/10/29 02:00:00;;;;;;;3.33;2.40;;;;;;;14.42;80.07;99834.59;4951539;28;96828;-78
2023/10/29 02:02:27;;;;;;;6.13;2.47;;;;;;;14.49;79.43;99838.56;4950205;28;96777;-77
2023/10/29 02:04:53;;;;;;;8.13;2.22;;;;;;;14.28;80.40;99834.63;4947326;28;98844;-78
2023/10/29 02:07:20;;;;;;;4.28;2.00;;;;;;;14.46;79.53;99828.13;4943387;28;99282;-78
2023/10/29 02:09:47;;;;;;;4.97;2.42;;;;;;;14.31;80.21;99818.47;4948879;28;96791;-78
2023/10/29 02:12:14;;;;;;;5.22;2.55;;;;;;;14.40;79.84;99820.56;4945633;28;96980;-77
2023/10/29 02:14:41;;;;;;;4.70;2.40;;;;;;;14.24;80.35;99817.19;4952158;28;98908;-78
2023/10/29 02:17:07;;;;;;;7.55;2.22;;;;;;;14.30;80.16;99820.28;4946772;28;98696;-79
2023/10/29 02:19:34;;;;;;;6.68;2.40;;;;;;;14.28;80.54;99824.00;4949675;28;96704;-78
2023/10/29 02:22:01;;;;;;;5.47;1.90;;;;;;;14.41;80.56;99829.38;4949909;28;96823;-79
2023/10/29 02:24:28;;;;;;;8.95;2.25;;;;;;;14.54;79.43;99835.59;4950078;28;101623;-78
2023/10/29 02:26:54;;;;;;;4.82;1.85;;;;;;;14.45;79.91;99841.50;4949039;28;101338;-78
2023/10/29 02:29:21;;;;;;;5.60;2.10;;;;;;;14.57;79.88;99833.56;4949500;28;96711;-78
2023/10/29 02:31:47;;;;;;;7.13;2.28;;;;;;;14.54;79.89;99831.13;4950016;28;97193;-78
2023/10/29 02:34:13;;;;;;;6.50;1.70;;;;;;;14.41;79.96;99840.88;4948511;28;99661;-78
2023/10/29 02:36:40;;;;;;;6.25;1.73;;;;;;;14.58;79.45;99829.97;4949107;28;99338;-78
2023/10/29 02:39:08;;;;;;;5.55;2.00;;;;;;;14.40;80.69;99833.84;4949461;28;96683;-78
2023/10/29 02:41:34;;;;;;;8.27;2.30;;;;;;;14.57;79.73;99838.06;4949293;28;96983;-78
2023/10/29 02:44:00;;;;;;;6.68;2.08;;;;;;;14.53;79.89;99833.88;4948926;28;98957;-78
2023/10/29 02:46:27;;;;;;;6.30;1.92;;;;;;;14.42;80.00;99834.59;4947163;28;98815;-77
2023/10/29 02:48:53;;;;;;;4.63;1.92;;;;;;;14.31;81.01;99834.41;4951876;28;97738;-78
2023/10/29 02:51:19;;;;;;;4.03;1.70;;;;;;;14.32;81.21;99833.47;4949035;28;97948;-78
2023/10/29 02:53:46;;;;;;;4.25;2.17;;;;;;;14.47;80.75;99836.97;4948041;28;98832;-78
2023/10/29 02:56:14;;;;;;;4.05;2.08;;;;;;;14.39;80.43;99837.44;4949952;28;97570;-79
2023/10/29 02:58:40;;;;;;;4.35;1.90;;;;;;;14.47;81.09;99837.81;4949555;28;97125;-77
2023/10/29 03:01:07;;;;;;;8.50;1.80;;;;;;;14.38;81.19;99845.53;4949593;28;96873;-78
2023/10/29 03:03:34;;;;;;;8.30;2.17;;;;;;;14.54;80.39;99851.56;4949433;28;99016;-79
2023/10/29 03:06:03;;;;;;;3.45;1.80;;;;;;;14.42;81.18;99847.91;4949089;28;98747;-78
2023/10/29 03:08:30;;;;;;;10.85;2.00;;;;;;;14.18;82.41;99849.44;4947373;28;96975;-78
2023/10/29 03:10:56;;;;;;;3.92;1.80;;;;;;;14.42;81.48;99853.22;4948123;28;96820;-78
2023/10/29 03:13:24;;;;;;;6.53;1.70;;;;;;;14.17;82.50;99853.06;4948405;28;98204;-78
2023/10/29 03:15:50;;;;;;;5.00;2.08;;;;;;;14.39;82.26;99847.22;4948702;28;98069;-79
2023/10/29 03:18:17;;;;;;;4.65;2.20;;;;;;;14.47;81.84;99856.41;4948596;28;97369;-78
2023/10/29 03:20:43;;;;;;;7.35;2.25;;;;;;;14.34;82.77;99848.34;4949324;28;96905;-78
2023/10/29 03:23:10;;;;;;;7.28;2.10;;;;;;;14.21;83.34;99839.47;4949166;28;98882;-78
2023/10/29 03:25:36;;;;;;;4.13;2.13;;;;;;;14.48;82.78;99842.19;4951252;28;98615;-79
2023/10/29 03:28:02;;;;;;;5.65;2.10;;;;;;;14.49;82.60;99837.72;4952795;28;97132;-79
2023/10/29 03:30:31;;;;;;;4.68;1.55;;;;;;;14.46;82.80;99833.44;4948767;28;96798;-79
2023/10/29 03:32:57;;;;;;;8.27;2.15;;;;;;;14.23;84.39;99815.47;4952411;28;101774;-80
2023/10/29 03:35:26;;;;;;;7.40;2.17;;;;;;;14.42;83.78;99816.00;4952797;28;102133;-79
2023/10/29 03:37:53;;;;;;;5.72;2.20;;;;;;;14.31;84.21;99814.00;4947896;28;97305;-79
2023/10/29 03:40:20;;;;;;;5.53;1.73;;;;;;;14.34;84.21;99812.97;4949159;28;96818;-79
2023/10/29 03:42:46;;;;;;;9.10;2.45;;;;;;;14.22;84.89;99792.50;4952490;28;98124;-79
2023/10/29 03:45:13;;;;;;;5.10;2.22;;;;;;;14.32;84.26;99793.59;4948844;28;98003;-80
2023/10/29 03:47:41;;;;;;;3.92;2.13;;;;;;;14.39;84.06;99794.94;4955515;28;96966;-80
2023/10/29 03:50:08;;;;;;;6.30;2.83;;;;;;;14.45;83.80;99791.00;4952117;28;96808;-80
2023/10/29 03:52:35;;;;;;;5.43;2.17;;;;;;;14.23;84.72;99789.75;4949379;28;99666;-80
2023/10/29 03:55:01;;;;;;;7.30;2.15;;;;;;;14.62;83.24;99786.28;4954132;28;99043;-79
2023/10/29 03:57:28;;;;;;;7.32;2.83;;;;;;;14.61;83.10;99779.25;4945304;28;97497;-79
2023/10/29 03:59:54;;;;;;;7.75;2.60;;;;;;;14.67;82.31;99768.22;4948463;28;97118;-79
2023/10/29 04:02:21;;;;;;;5.68;2.58;;;;;;;14.48;83.58;99769.56;4933285;28;98846;-79
2023/10/29 04:04:48;;;;;;;6.13;2.45;;;;;;;14.40;84.03;99772.72;4943935;28;98773;-80
2023/10/29 04:07:15;;;;;;;5.18;2.20;;;;;;;14.29;84.63;99773.41;4955423;28;97247;-79
2023/10/29 04:09:41;;;;;;;5.72;2.83;;;;;;;14.35;84.70;99777.47;4950732;28;96809;-79
2023/10/29 04:12:08;;;;;;;5.43;2.35;;;;;;;14.32;84.76;99764.38;4953526;28;99711;-79
2023/10/29 04:14:35;;;;;;;7.85;2.33;;;;;;;14.38;84.80;99765.78;4956396;28;100533;-79
2023/10/29 04:17:01;;;;;;;10.18;2.58;;;;;;;14.44;84.97;99776.03;4950585;28;98312;-79
2023/10/29 04:19:27;;;;;;;9.27;2.35;;;;;;;14.49;84.61;99776.56;4950859;28;96893;-79
2023/10/29 04:21:55;;;;;;;8.63;2.50;;;;;;;14.54;84.75;99782.44;4950947;28;97684;-78
2023/10/29 04:24:21;;;;;;;10.10;2.60;;;;;;;14.44;84.81;99776.03;4955296;28;98716;-79
2023/10/29 04:26:48;;;;;;;6.82;2.10;;;;;;;14.53;85.03;99773.59;4952933;28;96816;-79
2023/10/29 04:29:16;;;;;;;5.25;2.35;;;;;;;14.52;84.28;99773.69;4951192;28;97314;-78
2023/10/29 04:31:42;;;;;;;9.82;2.40;;;;;;;14.59;84.91;99769.69;4958323;28;99518;-79
2023/10/29 04:34:08;;;;;;;6.00;2.33;;;;;;;14.61;84.71;99760.66;4951101;28;98845;-79
2023/10/29 04:36:35;;;;;;;5.70;2.42;;;;;;;14.51;85.21;99754.22;4951590;28;96642;-79
2023/10/29 04:39:03;;;;;;;9.13;2.55;;;;;;;14.66;84.75;99750.56;4951511;28;96940;-79
2023/10/29 04:41:29;;;;;;;7.03;2.45;;;;;;;14.68;84.23;99742.47;4946481;28;97654;-78
2023/10/29 04:43:56;;;;;;;6.97;2.83;;;;;;;14.63;84.86;99737.47;4958077;28;100541;-79
2023/10/29 04:46:22;;;;;;;9.90;2.85;;;;;;;14.65;84.78;99732.91;4957405;28;97148;-79
2023/10/29 04:48:48;;;;;;;7.40;2.05;;;;;;;14.72;84.79;99730.66;4951533;28;98397;-79
2023/10/29 04:51:15;;;;;;;5.05;2.20;;;;;;;14.67;84.82;99725.66;4952060;28;98273;-77
2023/10/29 04:53:41;;;;;;;6.18;2.20;;;;;;;14.67;85.13;99709.72;4952786;28;99338;-80
2023/10/29 04:56:09;;;;;;;5.13;1.90;;;;;;;14.56;85.73;99701.63;4950679;28;97561;-79
2023/10/29 04:58:37;;;;;;;3.90;2.00;;;;;;;14.47;86.71;99685.44;4952361;28;96790;-78
2023/10/29 05:01:03;;;;;;;5.72;1.92;;;;;;;14.36;86.94;99684.34;4951906;28;99397;-77
2023/10/29 05:03:30;;;;;;;4.28;2.15;;;;;;;14.54;86.46;99684.06;4955736;28;99251;-78
2023/10/29 05:05:56;;;;;;;7.55;2.28;;;;;;;14.43;86.46;99684.81;4954144;28;96641;-78
2023/10/29 05:08:22;;;;;;;11.90;2.30;;;;;;;14.43;86.56;99681.31;4950363;28;96912;-78
2023/10/29 05:10:49;;;;;;;7.45;2.25;;;;;;;14.59;86.24;99674.81;4950513;28;98020;-77
2023/10/29 05:13:17;;;;;;;11.18;2.72;;;;;;;14.49;86.35;99673.78;4951639;28;99529;-77
2023/10/29 05:15:45;;;;;;;11.63;2.63;;;;;;;14.40;86.79;99685.00;4959669;28;96824;-79
2023/10/29 05:18:12;;;;;;;6.55;1.95;;;;;;;14.55;86.53;99676.00;4949102;28;98963;-81
2023/10/29 05:20:38;;;;;;;7.78;2.25;;;;;;;14.54;86.73;99676.09;4945687;28;102161;-79
2023/10/29 05:23:05;;;;;;;10.60;2.00;;;;;;;14.42;87.49;99663.66;4950009;28;97582;-79
2023/10/29 05:25:31;;;;;;;5.93;1.90;;;;;;;14.47;87.27;99673.00;4951175;28;96760;-78
2023/10/29 05:27:58;;;;;;;4.70;2.10;;;;;;;14.60;86.56;99676.53;4951447;28;97171;-78
2023/10/29 05:30:26;;;;;;;5.22;2.25;;;;;;;14.52;87.08;99678.00;4950124;28;99010;-78
2023/10/29 05:32:52;;;;;;;8.20;2.33;;;;;;;14.59;86.84;99673.97;4950841;28;98808;-78
2023/10/29 05:35:19;;;;;;;6.30;2.05;;;;;;;14.60;86.51;99657.06;4950069;28;96721;-79
2023/10/29 05:37:45;;;;;;;6.72;1.95;;;;;;;14.59;86.49;99648.25;4952635;28;96935;-78
2023/10/29 05:40:12;;;;;;;8.68;2.35;;;;;;;14.65;86.89;99653.13;4950108;28;99371;-77
2023/10/29 05:42:39;;;;;;;5.05;2.00;;;;;;;14.64;87.19;99648.75;4950268;28;99155;-78
2023/10/29 05:45:06;;;;;;;8.32;2.13;;;;;;;14.57;87.48;99651.97;4950668;28;96673;-78
2023/10/29 05:47:34;;;;;;;7.18;2.33;;;;;;;14.58;87.70;99648.34;4950621;28;96844;-80
2023/10/29 05:50:01;;;;;;;5.85;2.05;;;;;;;14.65;87.48;99636.31;4954051;28;99411;-78
2023/10/29 05:52:27;;;;;;;7.03;1.88;;;;;;;14.76;86.95;99644.44;4946043;28;99128;-79
2023/10/29 05:54:53;;;;;;;6.68;2.08;;;;;;;14.69;87.13;99651.97;4947627;28;98308;-77
2023/10/29 05:57:20;;;;;;;10.90;2.45;;;;;;;14.63;87.97;99641.78;4954893;28;96946;-78
2023/10/29 05:59:46;;;;;;;5.40;1.90;;;;;;;14.94;86.64;99644.94;4944999;28;99305;-78
2023/10/29 06:02:14;;;;;;;10.25;2.50;;;;;;;14.85;86.98;99649.09;4961666;28;96843;-78
2023/10/29 06:04:41;;;;;;;4.07;1.80;;;;;;;14.87;87.09;99663.13;4942007;28;96883;-78
2023/10/29 06:07:09;;;;;;;7.78;2.22;;;;;;;14.78;87.57;99663.75;4944918;28;97052;-79
2023/10/29 06:09:35;;;;;;;8.40;1.70;;;;;;;14.88;87.33;99663.97;4963719;28;99278;-79
2023/10/29 06:12:02;;;;;;;6.47;1.80;;;;;;;14.92;86.06;99661.00;4956321;28;99814;-79
2023/10/29 06:14:28;;;;;;;3.63;1.95;;;;;;;15.00;86.58;99660.44;4949759;28;96744;-79
2023/10/29 06:16:56;;;;;;;6.20;1.85;;;;;;;15.06;86.08;99657.34;4951022;28;96789;-79
2023/10/29 06:19:23;;;;;;;7.43;1.80;;;;;;;14.99;86.74;99656.09;4948081;28;99751;-78
2023/10/29 06:21:51;;;;;;;3.67;1.80;;;;;;;15.10;86.19;99653.50;4950309;28;98923;-77
2023/10/29 06:24:18;;;;;;;8.70;1.85;;;;;;;14.85;86.96;99654.41;4952247;28;97935;-77
2023/10/29 06:26:44;;;;;;;3.80;1.52;;;;;;;14.92;86.80;99649.50;4947537;28;96840;-78
2023/10/29 06:29:10;;;;;;;5.40;1.63;;;;;;;14.97;86.80;99658.84;4950351;28;99293;-79
2023/10/29 06:31:37;;;;;;;6.28;1.63;;;;;;;15.03;86.67;99647.78;4950677;28;100796;-79
2023/10/29 06:34:04;;;;;;;3.33;1.60;;;;;;;15.14;86.25;99652.34;4949264;28;96731;-80
2023/10/29 06:36:30;;;;;;;3.33;1.70;;;;;;;15.29;85.59;99656.59;4954296;28;96835;-78
2023/10/29 06:38:58;;;;;;;5.22;1.73;;;;;;;15.39;85.20;99660.28;4951140;28;99024;-79
2023/10/29 06:41:24;;;;;;;3.38;1.92;;;;;;;15.03;86.40;99653.09;4951670;28;98354;-77
2023/10/29 06:43:51;;;;;;;9.52;1.60;;;;;;;14.88;87.26;99653.34;4948226;28;99189;-79
2023/10/29 06:46:18;;;;;;;7.05;1.85;;;;;;;15.11;87.04;99644.56;4942499;28;99419;-79
2023/10/29 06:48:44;;;;;;;6.28;1.75;;;;;;;15.04;87.43;99649.47;4949396;28;101170;-79
2023/10/29 06:51:13;;;;;;;4.53;1.60;;;;;;;15.13;86.80;99656.81;4949745;28;98761;-79
2023/10/29 06:53:40;;;;;;;5.55;1.55;;;;;;;15.24;86.77;99663.16;4953279;28;97000;-78
2023/10/29 06:56:09;;;;;;;6.40;1.70;;;;;;;15.32;85.60;99663.47;4953448;28;97318;-78
2023/10/29 06:58:37;;;;;;;5.88;1.83;;;;;;;15.24;86.37;99664.03;4952140;28;98887;-78
2023/10/29 07:01:04;;;;;;;8.38;1.70;;;;;;;15.32;85.47;99659.00;4950916;28;98872;-80
2023/10/29 07:03:31;;;;;;;7.35;1.95;;;;;;;15.22;85.86;99662.44;4950391;28;97032;-78
2023/10/29 07:06:06;;;;;;;4.03;1.42;;;;;;;15.12;86.48;99648.94;4953115;28;96794;-80
2023/10/29 07:08:33;;;;;;;4.07;1.30;;;;;;;15.31;86.07;99646.66;4951069;28;98897;-78
2023/10/29 07:11:00;;;;;;;7.10;1.67;;;;;;;15.32;85.84;99650.16;4951019;28;100516;-78
2023/10/29 07:13:27;;;;;;;7.53;1.80;;;;;;;15.27;85.96;99650.50;4948384;28;96808;-80
2023/10/29 07:15:54;;;;;;;5.80;2.00;;;;;;;15.22;86.09;99652.66;4950476;28;96828;-79
2023/10/29 07:18:21;;;;;;;7.03;2.10;;;;;;;15.11;86.61;99640.09;4949825;28;101483;-79
2023/10/29 07:20:47;;;;;;;5.78;1.75;;;;;;;15.42;85.53;99638.75;4946209;28;98942;-78
2023/10/29 07:23:16;;;;;;;5.82;1.70;;;;;;;15.31;85.58;99635.16;4948992;28;96743;-79
2023/10/29 07:25:43;;;;;;;8.63;1.73;;;;;;;15.35;85.17;99634.84;4949944;28;96865;-79
2023/10/29 07:28:09;;;;;;;8.60;1.83;;;;;;;15.29;85.03;99637.09;4956363;28;99250;-79
2023/10/29 07:30:37;;;;;;;5.43;1.88;;;;;;;15.58;84.21;99643.84;4949960;28;97991;-77
2023/10/29 07:33:04;;;;;;;3.63;1.40;;;;;;;15.13;85.17;99632.88;4948341;28;96700;-79
2023/10/29 07:35:31;;;;;;;4.75;1.70;;;;;;;15.32;85.03;99631.53;4950572;28;97138;-78
2023/10/29 07:37:58;;;;;;;8.05;2.40;;;;;;;15.51;84.40;99640.72;4956947;28;101379;-79
2023/10/29 07:40:24;;;;;;;6.65;2.20;;;;;;;15.57;83.97;99647.44;4952987;28;99192;-78
2023/10/29 07:42:51;;;;;;;10.98;2.15;;;;;;;15.37;85.19;99634.72;4950701;28;96834;-79
2023/10/29 07:45:17;;;;;;;5.13;1.75;;;;;;;15.35;85.25;99634.84;4943359;28;96917;-78
2023/10/29 07:47:45;;;;;;;5.63;1.70;;;;;;;15.49;84.35;99639.97;4947559;28;99230;-77
2023/10/29 07:50:12;;;;;;;4.40;1.88;;;;;;;15.51;84.25;99643.41;4951954;28;101543;-79
2023/10/29 07:52:39;;;;;;;5.88;2.05;;;;;;;15.51;84.17;99655.84;4948753;28;98795;-80
2023/10/29 07:55:06;;;;;;;7.22;1.90;;;;;;;15.23;84.59;99654.34;4945571;28;97137;-79
2023/10/29 07:57:32;;;;;;;5.45;1.67;;;;;;;15.37;85.07;99643.53;4951068;28;99466;-80
2023/10/29 07:59:59;;;;;;;6.88;1.65;;;;;;;15.33;84.45;99658.06;4950998;28;99015;-79
2023/10/29 08:02:25;;;;;;;7.57;1.77;;;;;;;15.60;83.50;99657.03;4952877;28;98118;-79
2023/10/29 08:04:55;;;;;;;9.02;1.80;;;;;;;15.49;83.53;99653.28;4955428;28;96774;-79
2023/10/29 08:07:21;;;;;;;7.05;1.73;;;;;;;15.21;84.17;99634.97;4951545;28;99294;-78
2023/10/29 08:09:47;;;;;;;9.00;2.25;;;;;;;15.27;84.58;99629.22;4950972;28;98904;-79
2023/10/29 08:12:14;;;;;;;5.75;1.88;;;;;;;15.26;84.37;99614.22;4949330;28;96726;-79
2023/10/29 08:14:40;;;;;;;5.03;1.50;;;;;;;15.31;84.60;99606.72;4951676;28;96814;-79
2023/10/29 08:17:07;;;;;;;4.30;1.92;;;;;;;15.13;85.71;99608.06;4954524;28;98797;-80
2023/10/29 08:19:33;;;;;;;5.65;1.73;;;;;;;15.29;84.82;99618.47;4949393;28;101009;-79
2023/10/29 08:22:01;;;;;;;5.18;1.70;;;;;;;15.35;84.67;99618.88;4950821;28;98735;-80
2023/10/29 08:24:27;;;;;;;5.35;1.85;;;;;;;15.48;84.10;99621.50;4950156;28;97222;-79
2023/10/29 08:26:54;;;;;;;5.22;2.00;;;;;;;15.39;84.12;99616.81;4949202;28;101171;-79
2023/10/29 08:29:20;;;;;;;4.97;1.60;;;;;;;15.41;84.15;99626.41;4950675;28;97998;-79
2023/10/29 08:31:46;;;;;;;4.55;2.17;;;;;;;15.37;84.39;99630.25;4952201;28;96869;-77
2023/10/29 08:34:13;;;;;;;7.82;1.80;;;;;;;15.48;83.67;99632.13;4950672;28;96790;-78
2023/10/29 08:36:39;;;;;;;4.13;1.48;;;;;;;15.45;82.98;99627.03;4951040;28;98934;-79
2023/10/29 08:39:07;;;;;;;8.18;1.50;;;;;;;15.52;83.36;99623.84;4950197;28;99031;-78
2023/10/29 08:41:34;;;;;;;6.90;1.73;;;;;;;15.70;83.02;99621.63;4951262;28;96795;-77
2023/10/29 08:44:01;;;;;;;3.13;1.35;;;;;;;15.74;82.21;99625.78;4950848;28;98641;-77
2023/10/29 08:46:27;;;;;;;7.03;1.95;;;;;;;15.72;82.76;99618.84;4949910;28;101987;-79
2023/10/29 08:48:54;;;;;;;3.45;1.90;;;;;;;15.74;81.75;99620.44;4954395;28;100540;-79
2023/10/29 08:51:20;;;;;;;4.45;1.92;;;;;;;16.08;81.00;99631.25;4951168;28;96933;-78
2023/10/29 08:53:47;;;;;;;4.45;2.00;;;;;;;16.11;80.76;99626.50;4948122;28;97784;-78
2023/10/29 08:56:15;;;;;;;6.07;1.95;;;;;;;16.24;79.99;99643.28;4950348;28;98902;-78
2023/10/29 08:58:42;;;;;;;6.22;1.80;;;;;;;16.30;79.98;99633.94;4946455;28;98975;-78
2023/10/29 09:01:11;;;;;;;5.20;1.70;;;;;;;16.31;79.28;99623.19;4950013;28;96796;-78
2023/10/29 09:03:37;;;;;;;4.30;1.70;;;;;;;16.42;79.17;99627.66;4953585;28;96928;-78
2023/10/29 09:06:05;;;;;;;8.65;1.85;;;;;;;16.19;79.44;99623.28;4956777;28;101458;-79
2023/10/29 09:08:33;;;;;;;6.43;1.90;;;;;;;16.26;79.17;99625.34;4950813;28;99501;-79
2023/10/29 09:10:59;;;;;;;3.45;1.60;;;;;;;16.30;79.17;99613.47;4947828;28;97208;-78
2023/10/29 09:13:28;;;;;;;7.93;1.63;;;;;;;16.42;78.54;99611.69;4948758;28;96871;-78
2023/10/29 09:15:54;;;;;;;7.90;1.98;;;;;;;16.42;78.67;99613.50;4949222;28;98874;-78
2023/10/29 09:18:21;;;;;;;6.55;1.60;;;;;;;16.57;78.08;99607.81;4949102;28;98902;-79
2023/10/29 09:20:47;;;;;;;3.28;1.90;;;;;;;16.63;77.16;99596.72;4951347;28;96816;-79
2023/10/29 09:23:14;;;;;;;6.13;1.70;;;;;;;16.40;78.74;99600.31;4949714;28;96774;-78
2023/10/29 09:25:43;;;;;;;2.75;1.60;;;;;;;16.03;80.17;99606.72;4945233;28;98868;-78
2023/10/29 09:28:11;;;;;;;4.82;1.75;;;;;;;16.25;80.03;99613.00;4949825;28;99173;-79
2023/10/29 09:30:39;;;;;;;3.60;1.55;;;;;;;16.21;79.16;99624.00;4950358;28;96915;-78
2023/10/29 09:33:07;;;;;;;5.53;1.73;;;;;;;16.33;78.44;99613.25;4954532;28;97111;-79
2023/10/29 09:35:35;;;;;;;6.57;1.75;;;;;;;16.74;77.52;99618.03;4948029;28;99435;-78
2023/10/29 09:38:01;;;;;;;5.07;1.20;;;;;;;16.47;76.85;99612.19;4954288;28;99620;-78
2023/10/29 09:40:27;;;;;;;3.35;1.30;;;;;;;16.80;76.53;99622.06;4952710;28;96841;-78
2023/10/29 09:42:56;;;;;;;3.20;1.35;;;;;;;17.23;74.62;99632.00;4959784;28;96832;-77
2023/10/29 09:45:24;;;;;;;7.38;1.55;;;;;;;16.90;74.26;99630.19;4950619;28;98908;-81
2023/10/29 09:47:53;;;;;;;4.47;1.23;;;;;;;16.83;74.67;99619.16;4947922;28;99022;-78
2023/10/29 09:50:19;;;;;;;1.98;1.02;;;;;;;16.93;75.04;99625.47;4948753;28;96839;-77
2023/10/29 09:52:50;;;;;;;8.27;1.20;;;;;;;17.00;73.74;99632.00;4949501;28;96791;-80
2023/10/29 09:55:18;;;;;;;1.98;1.40;;;;;;;16.80;74.43;99632.75;4949526;28;101757;-78
2023/10/29 09:57:45;;;;;;;3.72;1.52;;;;;;;16.95;73.66;99630.66;4940693;28;101720;-78
2023/10/29 10:00:13;;;;;;;3.60;1.58;;;;;;;17.05;73.54;99629.84;4948182;28;97013;-78
2023/10/29 10:02:52;;;;;;;2.33;1.55;;;;;;;16.88;74.00;99616.09;4947340;28;97634;-78
2023/10/29 10:05:20;;;;;;;3.47;1.13;;;;;;;16.94;74.58;99642.31;4949269;28;98997;-77
2023/10/29 10:07:46;;;;;;;4.88;1.55;;;;;;;17.02;74.10;99640.75;4948224;28;98897;-77
2023/10/29 10:10:13;;;;;;;4.82;1.92;;;;;;;17.04;73.99;99648.63;4947606;28;96956;-77
2023/10/29 10:12:46;;;;;;;4.50;1.40;;;;;;;17.18;73.64;99644.88;4948908;28;99558;-78
2023/10/29 10:15:13;;;;;;;6.63;1.40;;;;;;;17.13;73.18;99640.72;4945065;28;97466;-78
2023/10/29 10:17:39;;;;;;;9.65;1.52;;;;;;;17.01;74.03;99646.19;4949678;28;99009;-77
2023/10/29 10:20:10;;;;;;;7.93;1.35;;;;;;;17.06;73.94;99647.53;4949726;28;96747;-77
2023/10/29 10:22:37;;;;;;;8.07;1.35;;;;;;;17.09;73.75;99641.09;4950342;28;96788;-77
2023/10/29 10:25:04;;;;;;;7.13;1.50;;;;;;;17.23;72.94;99664.03;4949255;28;98251;-78
2023/10/29 10:27:30;;;;;;;3.88;1.00;;;;;;;17.22;72.14;99663.16;4946995;28;100775;-78
2023/10/29 10:29:57;;;;;;;1.83;1.00;;;;;;;17.14;72.92;99670.94;4950664;28;97202;-78
2023/10/29 10:32:24;;;;;;;4.65;1.08;;;;;;;17.26;72.21;99663.78;4955671;28;96736;-78
2023/10/29 10:34:52;;;;;;;6.45;0.98;;;;;;;17.14;71.48;99630.91;4948825;28;98200;-78
2023/10/29 10:37:24;;;;;;;3.15;1.15;;;;;;;17.13;71.29;99629.22;4948158;28;98836;-79
2023/10/29 10:39:54;;;;;;;6.13;1.50;;;;;;;17.29;71.39;99639.50;4944504;28;96649;-78
2023/10/29 10:42:23;;;;;;;2.78;1.20;;;;;;;17.25;71.39;99643.41;4951223;28;96746;-79
2023/10/29 10:44:51;;;;;;;3.28;1.00;;;;;;;17.54;70.58;99640.06;4946019;28;101173;-78
2023/10/29 10:47:18;;;;;;;3.47;1.10;;;;;;;17.58;70.01;99640.69;4947482;28;98857;-78
2023/10/29 10:49:46;;;;;;;4.20;1.67;;;;;;;17.49;70.81;99646.75;4948712;28;97695;-78
2023/10/29 10:52:13;;;;;;;3.05;1.00;;;;;;;17.47;68.99;99632.66;4951664;28;96816;-80
2023/10/29 10:54:43;;;;;;;1.95;0.80;;;;;;;17.41;69.49;99627.81;4947586;28;98183;-78
2023/10/29 10:57:11;;;;;;;2.78;1.02;;;;;;;17.27;71.25;99638.78;4953326;28;98709;-78
2023/10/29 10:59:38;;;;;;;3.38;1.00;;;;;;;17.40;70.50;99647.50;4949806;28;97123;-79
2023/10/29 11:02:08;;;;;;;3.10;1.05;;;;;;;17.48;70.00;99664.59;4949755;28;97162;-79
2023/10/29 11:04:35;;;;;;;2.30;0.93;;;;;;;17.61;69.55;99639.59;4948315;28;100494;-78
2023/10/29 11:07:02;;;;;;;3.25;1.17;;;;;;;17.75;68.28;99625.94;4948798;28;97687;-76
2023/10/29 11:09:29;;;;;;;5.78;1.10;;;;;;;18.12;67.49;99639.75;4951648;28;96909;-78
2023/10/29 11:11:57;;;;;;;3.20;1.08;;;;;;;18.36;66.80;99637.72;4957768;28;97253;-78
2023/10/29 11:14:25;;;;;;;2.92;1.10;;;;;;;18.50;66.01;99613.31;4950552;28;98883;-77
2023/10/29 11:16:53;;;;;;;3.05;0.95;;;;;;;18.55;64.72;99592.38;4945232;28;99021;-77
2023/10/29 11:19:47;;;;;;;7.28;1.30;;;;;;;18.78;64.74;99585.00;4951043;28;97642;-77
2023/10/29 11:22:27;;;;;;;5.30;1.10;;;;;;;18.57;66.06;99603.81;4947920;28;96714;-77
2023/10/29 11:25:29;;;;;;;2.05;1.20;;;;;;;18.91;64.08;99606.19;4948966;28;102298;-77
2023/10/29 11:27:56;;;;;;;4.35;0.90;;;;;;;18.64;65.05;99612.97;4947748;28;99445;-77
2023/10/29 11:30:27;;;;;;;2.97;1.20;;;;;;;18.82;64.31;99602.50;4951871;28;96774;-78
2023/10/29 11:33:16;;;;;;;2.90;0.90;;;;;;;18.76;63.72;99611.09;4951788;28;96899;-77